createdAt,value
2018-08-31T00:01:57.025Z,97.60
2018-08-31T00:04:38.077Z,97.70
2018-08-31T00:07:24.793Z,97.80
2018-08-31T00:10:36.671Z,98.00
2018-08-31T00:13:05.972Z,98.00
2018-08-31T00:15:35.055Z,98.00
2018-08-31T00:18:04.210Z,98.10
2018-08-31T00:20:33.209Z,98.10
2018-08-31T00:23:02.250Z,98.00
2018-08-31T00:26:39.690Z,98.40
2018-08-31T00:29:52.429Z,97.90
2018-08-31T00:34:39.334Z,97.60
2018-08-31T00:37:53.333Z,97.50
2018-08-31T00:40:32.029Z,97.50
2018-08-31T00:45:35.489Z,97.20
2018-08-31T00:48:05.081Z,97.10
2018-08-31T00:50:34.443Z,96.90
2018-08-31T00:53:04.183Z,97.00
2018-08-31T00:55:33.341Z,97.10
2018-08-31T00:58:02.408Z,97.10
2018-08-31T01:00:31.465Z,97.20
2018-08-31T01:03:00.521Z,97.20
2018-08-31T01:05:29.535Z,97.10
2018-08-31T01:07:58.588Z,97.10
2018-08-31T01:10:27.597Z,97.10
2018-08-31T01:12:56.648Z,97.10
2018-08-31T01:15:25.705Z,97.10
2018-08-31T01:17:54.744Z,97.10
2018-08-31T01:20:23.848Z,97.10
2018-08-31T01:22:53.230Z,97.10
2018-08-31T01:25:22.269Z,97.10
2018-08-31T01:27:51.348Z,97.30
2018-08-31T01:30:20.405Z,97.30
2018-08-31T01:32:49.394Z,97.20
2018-08-31T01:35:18.429Z,97.30
2018-08-31T01:37:47.473Z,97.30
2018-08-31T01:40:16.510Z,97.20
2018-08-31T01:42:45.542Z,97.20
2018-08-31T01:45:14.620Z,96.90
2018-08-31T01:47:43.720Z,97.00
2018-08-31T01:50:12.805Z,96.90
2018-08-31T01:52:41.844Z,96.80
2018-08-31T01:55:10.886Z,96.50
2018-08-31T01:57:40.058Z,96.40
2018-08-31T02:00:09.109Z,96.50
2018-08-31T02:02:38.168Z,96.60
2018-08-31T02:05:07.409Z,97.00
2018-08-31T02:07:36.463Z,96.70
2018-08-31T02:10:06.037Z,96.80
2018-08-31T02:12:35.066Z,96.90
2018-08-31T02:15:04.141Z,96.90
2018-08-31T02:17:33.148Z,96.60
2018-08-31T02:20:02.221Z,96.70
2018-08-31T02:22:31.340Z,96.90
2018-08-31T02:25:00.337Z,96.70
2018-08-31T02:27:29.366Z,96.60
2018-08-31T02:29:58.408Z,96.60
2018-08-31T02:32:27.461Z,96.60
2018-08-31T02:34:56.581Z,96.70
2018-08-31T02:37:25.611Z,96.60
2018-08-31T02:39:54.662Z,96.60
2018-08-31T02:42:23.686Z,96.70
2018-08-31T02:44:52.735Z,96.70
2018-08-31T02:47:21.818Z,96.70
2018-08-31T02:49:50.916Z,96.70
2018-08-31T02:52:20.340Z,96.70
2018-08-31T02:54:49.486Z,97.10
2018-08-31T02:59:26.196Z,97.00
2018-08-31T03:01:55.206Z,97.10
2018-08-31T03:04:24.382Z,97.00
2018-08-31T03:06:53.482Z,97.00
2018-08-31T03:09:22.473Z,97.00
2018-08-31T03:11:51.590Z,97.00
2018-08-31T03:14:20.592Z,97.00
2018-08-31T03:16:49.652Z,97.00
2018-08-31T03:19:18.692Z,97.00
2018-08-31T03:21:47.687Z,97.10
2018-08-31T03:24:16.744Z,97.10
2018-08-31T03:26:45.801Z,97.10
2018-08-31T03:29:14.961Z,97.20
2018-08-31T03:31:43.973Z,97.30
2018-08-31T03:34:13.054Z,97.40
2018-08-31T03:36:42.126Z,97.60
2018-08-31T03:39:11.323Z,97.60
2018-08-31T03:41:40.384Z,97.80
2018-08-31T03:44:09.384Z,97.70
2018-08-31T03:46:38.433Z,97.60
2018-08-31T03:49:07.490Z,97.50
2018-08-31T03:51:36.543Z,97.10
2018-08-31T03:54:05.852Z,96.80
2018-08-31T03:56:34.914Z,96.90
2018-08-31T03:59:03.954Z,97.00
2018-08-31T04:01:33.009Z,97.00
2018-08-31T04:04:02.321Z,97.10
2018-08-31T04:06:31.377Z,97.10
2018-08-31T04:09:00.430Z,97.00
2018-08-31T04:11:29.492Z,97.00
2018-08-31T04:13:58.497Z,97.00
2018-08-31T04:16:27.548Z,97.00
2018-08-31T04:18:56.541Z,97.00
2018-08-31T04:21:25.557Z,97.10
2018-08-31T04:23:54.613Z,97.10
2018-08-31T04:26:23.624Z,97.20
2018-08-31T04:28:52.693Z,97.10
2018-08-31T04:31:21.732Z,97.10
2018-08-31T04:33:50.868Z,97.10
2018-08-31T04:36:19.887Z,97.20
2018-08-31T04:38:48.909Z,97.20
2018-08-31T04:41:18.106Z,97.10
2018-08-31T04:43:47.160Z,97.10
2018-08-31T04:46:16.305Z,97.00
2018-08-31T04:48:45.366Z,96.80
2018-08-31T04:51:14.387Z,96.90
2018-08-31T04:53:43.412Z,96.90
2018-08-31T04:56:12.429Z,96.90
2018-08-31T04:58:41.474Z,97.00
2018-08-31T05:01:10.534Z,97.00
2018-08-31T05:03:39.693Z,97.10
2018-08-31T05:06:08.758Z,97.50
2018-08-31T05:08:37.841Z,97.10
2018-08-31T05:11:06.884Z,97.20
2018-08-31T05:13:36.916Z,97.30
2018-08-31T05:16:05.924Z,97.30
2018-08-31T05:18:34.987Z,97.40
2018-08-31T05:21:04.153Z,97.40
2018-08-31T05:23:33.227Z,97.40
2018-08-31T05:30:39.829Z,97.60
2018-08-31T05:33:08.917Z,97.70
2018-08-31T05:35:37.972Z,97.70
2018-08-31T05:38:07.086Z,97.70
2018-08-31T05:40:36.077Z,97.70
2018-08-31T05:43:05.141Z,97.60
2018-08-31T05:45:34.194Z,97.50
2018-08-31T05:48:03.275Z,97.50
2018-08-31T05:50:32.554Z,97.50
2018-08-31T05:53:01.645Z,97.50
2018-08-31T05:55:30.670Z,97.40
2018-08-31T05:57:59.846Z,97.50
2018-08-31T06:00:28.932Z,97.50
2018-08-31T06:02:57.974Z,97.40
2018-08-31T06:05:27.108Z,97.40
2018-08-31T06:07:56.116Z,97.50
2018-08-31T06:10:25.194Z,97.40
2018-08-31T06:12:54.237Z,97.40
2018-08-31T06:15:23.265Z,97.20
2018-08-31T06:17:52.303Z,97.20
2018-08-31T06:20:21.312Z,97.00
2018-08-31T06:22:50.386Z,96.60
2018-08-31T06:25:19.387Z,96.30
2018-08-31T06:27:48.507Z,96.20
2018-08-31T06:30:17.532Z,96.30
2018-08-31T06:32:46.635Z,96.30
2018-08-31T06:35:15.633Z,96.20
2018-08-31T06:37:44.745Z,96.00
2018-08-31T06:40:13.950Z,95.90
2018-08-31T06:42:43.133Z,95.80
2018-08-31T06:45:12.166Z,95.60
2018-08-31T06:47:41.157Z,95.40
2018-08-31T06:50:10.233Z,95.00
2018-08-31T06:52:39.241Z,95.00
2018-08-31T06:55:08.337Z,94.80
2018-08-31T06:57:37.390Z,93.70
2018-08-31T07:00:07.361Z,93.80
2018-08-31T07:02:36.447Z,93.80
2018-08-31T07:05:06.155Z,93.90
2018-08-31T07:07:35.220Z,93.70
2018-08-31T07:10:04.395Z,93.50
2018-08-31T07:12:33.498Z,93.40
2018-08-31T07:15:02.535Z,93.60
2018-08-31T07:17:31.601Z,93.80
2018-08-31T07:20:00.603Z,94.30
2018-08-31T07:22:29.650Z,93.60
2018-08-31T07:24:58.768Z,93.30
2018-08-31T07:27:27.902Z,93.90
2018-08-31T07:29:56.946Z,94.60
2018-08-31T07:32:26.568Z,94.50
2018-08-31T07:34:55.737Z,94.50
2018-08-31T07:37:24.844Z,94.40
2018-08-31T07:39:53.949Z,93.90
2018-08-31T07:42:23.078Z,93.90
2018-08-31T07:44:52.170Z,93.90
2018-08-31T07:47:21.344Z,93.10
2018-08-31T07:49:50.401Z,92.50
2018-08-31T07:52:19.450Z,91.10
2018-08-31T07:54:48.601Z,91.40
2018-08-31T07:57:17.647Z,91.60
2018-08-31T07:59:46.746Z,91.10
2018-08-31T08:02:15.872Z,90.90
2018-08-31T08:04:44.996Z,91.60
2018-08-31T08:07:14.040Z,91.60
2018-08-31T08:09:43.098Z,91.70
2018-08-31T08:12:12.209Z,91.20
2018-08-31T08:14:41.344Z,91.50
2018-08-31T08:17:10.398Z,91.10
2018-08-31T08:19:39.614Z,91.10
2018-08-31T08:22:08.711Z,91.20
2018-08-31T08:24:37.802Z,91.80
2018-08-31T08:27:06.956Z,92.10
2018-08-31T08:29:35.996Z,91.00
2018-08-31T08:32:05.058Z,90.50
2018-08-31T08:34:34.129Z,90.20
2018-08-31T08:37:03.277Z,89.80
2018-08-31T08:39:32.777Z,90.10
2018-08-31T08:42:01.823Z,90.50
2018-08-31T08:44:30.973Z,89.70
2018-08-31T08:46:59.993Z,89.50
2018-08-31T08:49:29.106Z,88.80
2018-08-31T08:51:58.209Z,87.90
2018-08-31T08:54:27.279Z,88.10
2018-08-31T08:56:56.457Z,87.50
2018-08-31T08:59:25.928Z,85.90
2018-08-31T09:01:54.957Z,85.30
2018-08-31T09:04:24.190Z,85.80
2018-08-31T09:06:53.793Z,85.10
2018-08-31T09:09:22.886Z,84.70
2018-08-31T09:11:52.372Z,84.50
2018-08-31T09:14:21.462Z,81.30
2018-08-31T09:16:50.549Z,81.70
2018-08-31T09:19:20.457Z,81.40
2018-08-31T09:21:50.622Z,80.30
2018-08-31T09:24:20.469Z,79.10
2018-08-31T09:26:49.906Z,79.70
2018-08-31T09:29:19.954Z,79.30
2018-08-31T09:31:49.109Z,78.70
2018-08-31T09:34:18.181Z,80.60
2018-08-31T09:36:47.231Z,80.90
2018-08-31T09:39:16.575Z,78.90
2018-08-31T09:41:45.625Z,78.30
2018-08-31T09:44:14.690Z,79.30
2018-08-31T09:46:43.889Z,78.60
2018-08-31T09:49:12.997Z,75.50
2018-08-31T09:51:42.277Z,75.90
2018-08-31T09:54:12.013Z,76.00
2018-08-31T09:56:41.120Z,76.50
2018-08-31T09:59:11.573Z,76.00
2018-08-31T10:01:40.718Z,74.60
2018-08-31T10:04:09.856Z,75.30
2018-08-31T10:06:38.905Z,75.70
2018-08-31T10:09:09.293Z,76.30
2018-08-31T10:11:39.253Z,75.90
2018-08-31T10:14:08.708Z,76.00
2018-08-31T10:16:37.742Z,75.20
2018-08-31T10:19:07.175Z,77.50
2018-08-31T10:21:36.182Z,77.00
2018-08-31T10:24:05.362Z,76.20
2018-08-31T10:26:34.463Z,78.30
2018-08-31T10:29:03.650Z,76.80
2018-08-31T10:31:32.866Z,76.80
2018-08-31T10:34:01.952Z,78.00
2018-08-31T10:36:30.974Z,78.50
2018-08-31T10:39:00.006Z,77.80
2018-08-31T10:41:29.062Z,78.80
2018-08-31T10:43:58.795Z,80.10
2018-08-31T10:46:27.941Z,80.30
2018-08-31T10:48:57.147Z,80.20
2018-08-31T10:51:26.305Z,80.10
2018-08-31T10:53:55.331Z,81.00
2018-08-31T10:56:24.413Z,81.10
2018-08-31T10:58:53.595Z,81.00
2018-08-31T11:01:22.665Z,80.50
2018-08-31T11:03:51.832Z,80.50
2018-08-31T11:06:20.886Z,79.80
2018-08-31T11:08:50.122Z,79.80
2018-08-31T11:11:20.540Z,79.50
2018-08-31T11:13:51.503Z,79.50
2018-08-31T11:16:23.609Z,77.30
2018-08-31T11:18:54.461Z,77.10
2018-08-31T11:21:23.742Z,76.70
2018-08-31T11:23:54.592Z,76.20
2018-08-31T11:26:34.766Z,76.30
2018-08-31T11:29:03.880Z,75.60
2018-08-31T11:31:32.970Z,76.10
2018-08-31T11:34:02.033Z,76.10
2018-08-31T11:36:31.250Z,76.00
2018-08-31T11:39:00.346Z,76.90
2018-08-31T11:41:29.413Z,76.00
2018-08-31T11:43:58.612Z,76.30
2018-08-31T11:46:27.656Z,76.30
2018-08-31T11:48:56.702Z,76.60
2018-08-31T11:51:25.818Z,76.60
2018-08-31T11:53:55.108Z,76.80
2018-08-31T11:56:24.292Z,80.30
2018-08-31T11:58:53.347Z,82.60
2018-08-31T12:01:22.484Z,86.00
2018-08-31T12:03:51.518Z,87.50
2018-08-31T12:06:20.619Z,85.60
2018-08-31T12:08:49.661Z,86.70
2018-08-31T12:11:18.698Z,89.60
2018-08-31T12:13:47.740Z,89.30
2018-08-31T12:16:18.824Z,91.00
2018-08-31T12:18:48.099Z,90.70
2018-08-31T12:21:18.158Z,90.70
2018-08-31T12:23:47.216Z,89.40
2018-08-31T12:26:16.652Z,86.60
2018-08-31T12:28:45.693Z,86.10
2018-08-31T12:31:15.291Z,85.80
2018-08-31T12:33:44.659Z,82.60
2018-08-31T12:36:13.737Z,84.40
2018-08-31T12:38:42.779Z,85.30
2018-08-31T12:41:12.305Z,83.40
2018-08-31T12:43:41.578Z,80.70
2018-08-31T12:46:10.617Z,78.10
2018-08-31T12:48:40.310Z,79.60
2018-08-31T12:51:10.514Z,79.80
2018-08-31T12:53:39.998Z,81.10
2018-08-31T12:56:09.180Z,80.60
2018-08-31T12:58:38.597Z,78.80
2018-08-31T13:01:07.738Z,78.10
2018-08-31T13:03:36.826Z,79.50
2018-08-31T13:06:05.849Z,81.50
2018-08-31T13:08:34.892Z,80.00
2018-08-31T13:11:04.038Z,81.30
2018-08-31T13:13:33.079Z,80.90
2018-08-31T13:16:02.144Z,80.90
2018-08-31T13:18:31.152Z,80.30
2018-08-31T13:21:00.212Z,80.30
2018-08-31T13:23:29.329Z,79.80
2018-08-31T13:25:58.480Z,77.40
2018-08-31T13:28:27.720Z,77.50
2018-08-31T13:30:58.298Z,79.00
2018-08-31T13:33:27.345Z,79.40
2018-08-31T13:35:56.410Z,78.60
2018-08-31T13:38:25.588Z,79.70
2018-08-31T13:40:54.557Z,77.90
2018-08-31T13:46:32.749Z,78.60
2018-08-31T13:49:01.862Z,76.70
2018-08-31T13:51:31.373Z,75.90
2018-08-31T13:54:00.561Z,76.00
2018-08-31T13:56:29.640Z,74.60
2018-08-31T13:58:58.689Z,75.30
2018-08-31T14:01:27.925Z,74.90
2018-08-31T14:03:56.989Z,74.30
2018-08-31T14:06:26.078Z,74.70
2018-08-31T14:08:55.087Z,73.80
2018-08-31T14:11:24.152Z,74.00
2018-08-31T14:13:53.289Z,73.50
2018-08-31T14:16:22.375Z,74.00
2018-08-31T14:18:51.433Z,73.70
2018-08-31T14:21:20.476Z,73.30
2018-08-31T14:23:49.784Z,73.10
2018-08-31T14:26:18.859Z,74.00
2018-08-31T14:28:48.031Z,74.90
2018-08-31T14:31:17.141Z,75.40
2018-08-31T14:33:46.214Z,75.90
2018-08-31T14:36:15.210Z,75.40
2018-08-31T14:38:44.216Z,74.80
2018-08-31T14:41:13.266Z,73.70
2018-08-31T14:43:42.309Z,73.60
2018-08-31T14:46:11.344Z,74.00
2018-08-31T14:48:40.383Z,74.60
2018-08-31T14:51:09.445Z,75.60
2018-08-31T14:53:38.441Z,76.90
2018-08-31T14:56:07.559Z,77.90
2018-08-31T14:58:36.661Z,79.40
2018-08-31T15:01:06.025Z,77.90
2018-08-31T15:03:35.053Z,78.70
2018-08-31T15:06:04.055Z,80.10
2018-08-31T15:08:33.111Z,80.10
2018-08-31T15:11:02.151Z,80.40
2018-08-31T15:13:31.165Z,82.20
2018-08-31T15:16:00.205Z,84.00
2018-08-31T15:18:29.220Z,84.10
2018-08-31T15:20:58.248Z,84.60
2018-08-31T15:23:27.295Z,86.40
2018-08-31T15:25:56.489Z,88.00
2018-08-31T15:28:25.566Z,90.40
2018-08-31T15:30:55.045Z,90.40
2018-08-31T15:33:24.066Z,90.20
2018-08-31T15:35:53.128Z,90.20
2018-08-31T15:38:22.165Z,90.60
2018-08-31T15:40:51.173Z,90.90
2018-08-31T15:43:20.545Z,91.10
2018-08-31T15:47:57.030Z,91.40
2018-08-31T15:50:26.111Z,91.70
2018-08-31T15:52:55.157Z,91.50
2018-08-31T15:55:24.213Z,90.90
2018-08-31T15:57:53.276Z,90.70
2018-08-31T16:00:26.033Z,90.80
2018-08-31T16:02:55.115Z,90.70
2018-08-31T16:05:24.129Z,90.90
2018-08-31T16:07:53.195Z,91.00
2018-08-31T16:10:22.197Z,91.50
2018-08-31T16:12:51.900Z,91.80
2018-08-31T16:15:20.972Z,92.00
2018-08-31T16:17:50.252Z,91.90
2018-08-31T16:20:19.320Z,91.90
2018-08-31T16:22:50.782Z,91.50
2018-08-31T16:25:19.965Z,91.50
2018-08-31T16:27:48.984Z,91.50
2018-08-31T16:30:18.006Z,91.50
2018-08-31T16:32:46.996Z,91.60
2018-08-31T16:35:16.035Z,91.20
2018-08-31T16:37:45.030Z,91.60
2018-08-31T16:40:14.112Z,91.50
2018-08-31T16:42:43.289Z,91.30
2018-08-31T16:45:12.394Z,91.10
2018-08-31T16:47:41.473Z,91.10
2018-08-31T16:50:10.503Z,91.10
2018-08-31T16:52:39.561Z,91.40
2018-08-31T16:55:08.644Z,91.60
2018-08-31T16:57:42.980Z,91.70
2018-08-31T17:00:12.152Z,91.90
2018-08-31T17:02:41.080Z,92.30
2018-08-31T17:05:10.122Z,92.30
2018-08-31T17:07:39.217Z,92.00
2018-08-31T17:10:08.302Z,92.30
2018-08-31T17:12:37.329Z,92.50
2018-08-31T17:15:06.337Z,92.90
2018-08-31T17:17:35.450Z,93.10
2018-08-31T17:20:05.003Z,93.30
2018-08-31T17:22:34.085Z,93.30
2018-08-31T17:25:03.193Z,93.50
2018-08-31T17:27:37.501Z,93.50
2018-08-31T17:30:13.110Z,93.50
2018-08-31T17:32:47.270Z,93.40
2018-08-31T17:35:21.422Z,93.20
2018-08-31T17:37:50.586Z,93.10
2018-08-31T17:40:19.740Z,93.30
2018-08-31T17:42:48.757Z,93.60
2018-08-31T17:45:19.788Z,93.50
2018-08-31T17:47:49.741Z,93.60
2018-08-31T17:50:18.824Z,93.70
2018-08-31T17:52:47.923Z,93.50
2018-08-31T17:55:17.119Z,93.40
2018-08-31T17:57:46.161Z,93.10
2018-08-31T18:00:15.245Z,93.10
2018-08-31T18:02:44.298Z,93.40
2018-08-31T18:05:13.493Z,94.00
2018-08-31T18:07:42.536Z,94.30
2018-08-31T18:10:11.571Z,94.30
2018-08-31T18:12:40.641Z,94.20
2018-08-31T18:15:09.677Z,94.20
2018-08-31T18:17:38.727Z,94.30
2018-08-31T18:20:07.797Z,94.60
2018-08-31T18:22:36.829Z,94.90
2018-08-31T18:25:06.052Z,95.00
2018-08-31T18:27:35.086Z,95.00
2018-08-31T18:30:04.227Z,95.10
2018-08-31T18:32:33.281Z,95.20
2018-08-31T18:35:02.309Z,95.20
2018-08-31T18:37:31.381Z,95.00
2018-08-31T18:40:00.423Z,95.00
2018-08-31T18:42:29.466Z,95.10
2018-08-31T18:44:58.549Z,95.20
2018-08-31T18:47:27.603Z,95.60
2018-08-31T18:49:56.749Z,95.30
2018-08-31T18:52:25.814Z,95.40
2018-08-31T18:54:54.877Z,95.40
2018-08-31T18:57:24.117Z,95.60
2018-08-31T18:59:53.125Z,95.70
2018-08-31T19:02:22.204Z,95.70
2018-08-31T19:04:51.217Z,95.80
2018-08-31T19:07:20.253Z,95.70
2018-08-31T19:09:49.437Z,95.60
2018-08-31T19:12:18.964Z,95.50
2018-08-31T19:14:48.045Z,95.50
2018-08-31T19:17:17.382Z,95.40
2018-08-31T19:19:46.424Z,95.40
2018-08-31T19:22:15.413Z,95.40
2018-08-31T19:24:44.440Z,95.40
2018-08-31T19:27:13.521Z,95.50
2018-08-31T19:31:51.224Z,95.70
2018-08-31T19:34:20.260Z,96.00
2018-08-31T19:36:49.354Z,95.40
2018-08-31T19:39:18.503Z,95.40
2018-08-31T19:41:47.592Z,95.60
2018-08-31T19:44:16.739Z,95.70
2018-08-31T19:46:47.177Z,95.80
2018-08-31T19:49:16.294Z,95.70
2018-08-31T19:51:45.332Z,95.80
2018-08-31T19:54:14.373Z,95.80
2018-08-31T19:56:43.480Z,95.90
2018-08-31T19:59:12.566Z,95.70
2018-08-31T20:01:41.605Z,95.80
2018-08-31T20:04:10.758Z,95.90
2018-08-31T20:06:39.787Z,96.00
2018-08-31T20:09:09.942Z,96.00
2018-08-31T20:11:39.549Z,96.20
2018-08-31T20:14:09.249Z,96.40
2018-08-31T20:16:41.196Z,96.40
2018-08-31T20:19:17.461Z,96.30
2018-08-31T20:21:48.116Z,96.30
2018-08-31T20:24:17.178Z,96.40
2018-08-31T20:26:46.438Z,96.40
2018-08-31T20:29:15.501Z,96.40
2018-08-31T20:31:45.188Z,96.30
2018-08-31T20:34:15.120Z,96.10
2018-08-31T20:36:46.775Z,96.10
2018-08-31T20:39:34.009Z,96.20
2018-08-31T20:42:07.941Z,96.20
2018-08-31T20:44:37.538Z,96.40
2018-08-31T20:47:06.986Z,96.40
2018-08-31T20:49:36.029Z,96.40
2018-08-31T20:52:05.319Z,96.40
2018-08-31T20:54:34.433Z,96.40
2018-08-31T20:57:03.609Z,96.50
2018-08-31T20:59:32.689Z,96.40
2018-08-31T21:02:01.849Z,96.30
2018-08-31T21:04:31.009Z,96.40
2018-08-31T21:07:00.376Z,96.40
2018-08-31T21:09:29.753Z,96.30
2018-08-31T21:11:59.117Z,96.10
2018-08-31T21:14:28.288Z,96.20
2018-08-31T21:16:57.425Z,96.10
2018-08-31T21:19:26.578Z,96.20
2018-08-31T21:21:56.947Z,96.00
2018-08-31T21:26:37.426Z,96.10
2018-08-31T21:29:06.575Z,96.10
2018-08-31T21:31:35.931Z,96.00
2018-08-31T21:34:05.115Z,96.40
2018-08-31T21:36:34.383Z,96.50
2018-08-31T21:39:04.286Z,96.50
2018-08-31T21:41:33.443Z,96.60
2018-08-31T21:44:02.577Z,96.60
2018-08-31T21:46:31.875Z,96.60
2018-08-31T21:49:03.234Z,96.50
2018-08-31T21:51:32.985Z,96.40
2018-08-31T21:54:04.944Z,96.40
2018-08-31T21:56:34.324Z,96.40
2018-08-31T21:59:04.712Z,96.30
2018-08-31T22:01:42.329Z,96.30
2018-08-31T22:04:12.282Z,96.10
2018-08-31T22:06:41.638Z,95.90
2018-08-31T22:09:11.208Z,95.70
2018-08-31T22:11:40.412Z,95.90
2018-08-31T22:14:09.486Z,96.00
2018-08-31T22:16:38.617Z,96.10
2018-08-31T22:19:07.743Z,96.30
2018-08-31T22:21:37.289Z,96.50
2018-08-31T22:24:06.389Z,96.60
2018-08-31T22:26:35.462Z,96.70
2018-08-31T22:29:04.598Z,97.00
2018-08-31T22:31:33.689Z,96.80
2018-08-31T22:34:02.849Z,96.70
2018-08-31T22:36:31.873Z,96.90
2018-08-31T22:39:00.948Z,97.00
2018-08-31T22:41:29.993Z,96.90
2018-08-31T22:43:59.101Z,96.60
2018-08-31T22:46:28.203Z,96.80
2018-08-31T22:48:57.314Z,96.90
2018-08-31T22:51:26.444Z,96.70
2018-08-31T22:53:55.522Z,97.10
2018-08-31T22:56:24.645Z,97.30
2018-08-31T22:58:53.788Z,97.40
2018-08-31T23:01:22.901Z,97.70
2018-08-31T23:03:51.972Z,97.70
2018-08-31T23:06:21.069Z,97.90
2018-08-31T23:08:50.117Z,98.10
2018-08-31T23:11:19.299Z,98.10
2018-08-31T23:13:48.414Z,98.30
2018-08-31T23:16:17.871Z,98.30
2018-08-31T23:18:46.978Z,98.40
2018-08-31T23:21:16.060Z,98.40
2018-08-31T23:23:47.896Z,98.30
2018-08-31T23:26:17.533Z,98.40
2018-08-31T23:28:46.597Z,98.40
2018-08-31T23:31:15.730Z,98.40
2018-08-31T23:33:44.809Z,98.60
2018-08-31T23:36:14.393Z,98.60
2018-08-31T23:38:43.485Z,99.00
2018-08-31T23:41:12.541Z,98.90
2018-08-31T23:43:41.645Z,98.90
2018-08-31T23:46:11.525Z,99.10
2018-08-31T23:48:40.629Z,99.20
2018-08-31T23:51:09.730Z,99.40
2018-08-31T23:53:38.854Z,99.60
2018-08-31T23:56:08.098Z,99.50
2018-08-31T23:58:37.661Z,99.60
